sensor_id;sensor_type;location;lat;lon;timestamp;temperature;humidity
36790;DHT22;22740;52.182;8.780;2023-07-13T00:00:30;17.90;99.90
36790;DHT22;22740;52.182;8.780;2023-07-13T00:06:33;17.80;99.90
36790;DHT22;22740;52.182;8.780;2023-07-13T00:12:38;17.70;99.90
36790;DHT22;22740;52.182;8.780;2023-07-13T00:18:43;17.60;99.90
36790;DHT22;22740;52.182;8.780;2023-07-13T00:24:45;17.40;99.90
36790;DHT22;22740;52.182;8.780;2023-07-13T00:30:47;17.50;99.90
36790;DHT22;22740;52.182;8.780;2023-07-13T00:36:49;17.40;99.90
36790;DHT22;22740;52.182;8.780;2023-07-13T00:42:52;17.20;99.90
36790;DHT22;22740;52.182;8.780;2023-07-13T00:48:57;17.30;99.90
36790;DHT22;22740;52.182;8.780;2023-07-13T00:55:01;17.10;99.90
36790;DHT22;22740;52.182;8.780;2023-07-13T01:01:03;17.20;99.90
36790;DHT22;22740;52.182;8.780;2023-07-13T01:07:06;17.30;99.90
36790;DHT22;22740;52.182;8.780;2023-07-13T01:13:10;17.20;99.90
36790;DHT22;22740;52.182;8.780;2023-07-13T01:19:28;17.10;99.90
36790;DHT22;22740;52.182;8.780;2023-07-13T01:25:37;17.20;99.90
36790;DHT22;22740;52.182;8.780;2023-07-13T01:31:39;17.30;99.90
36790;DHT22;22740;52.182;8.780;2023-07-13T01:37:42;17.30;99.90
36790;DHT22;22740;52.182;8.780;2023-07-13T01:43:46;17.30;99.90
36790;DHT22;22740;52.182;8.780;2023-07-13T01:49:48;17.20;99.90
36790;DHT22;22740;52.182;8.780;2023-07-13T01:55:51;17.20;99.90
36790;DHT22;22740;52.182;8.780;2023-07-13T02:01:53;17.20;99.90
36790;DHT22;22740;52.182;8.780;2023-07-13T02:07:55;17.30;99.90
36790;DHT22;22740;52.182;8.780;2023-07-13T02:13:57;17.20;99.90
36790;DHT22;22740;52.182;8.780;2023-07-13T02:19:59;17.10;99.90
36790;DHT22;22740;52.182;8.780;2023-07-13T02:26:03;17.20;99.90
36790;DHT22;22740;52.182;8.780;2023-07-13T02:32:05;17.20;99.90
36790;DHT22;22740;52.182;8.780;2023-07-13T02:38:08;17.10;99.90
36790;DHT22;22740;52.182;8.780;2023-07-13T02:44:12;17.20;99.90
36790;DHT22;22740;52.182;8.780;2023-07-13T02:50:15;17.30;99.90
36790;DHT22;22740;52.182;8.780;2023-07-13T02:56:21;17.30;99.90
36790;DHT22;22740;52.182;8.780;2023-07-13T03:02:24;17.20;99.90
36790;DHT22;22740;52.182;8.780;2023-07-13T03:08:26;17.10;99.90
36790;DHT22;22740;52.182;8.780;2023-07-13T03:14:28;16.90;99.90
36790;DHT22;22740;52.182;8.780;2023-07-13T03:20:33;16.80;99.90
36790;DHT22;22740;52.182;8.780;2023-07-13T03:26:35;16.60;99.90
36790;DHT22;22740;52.182;8.780;2023-07-13T03:32:37;16.70;99.90
36790;DHT22;22740;52.182;8.780;2023-07-13T03:38:39;16.70;99.90
36790;DHT22;22740;52.182;8.780;2023-07-13T03:44:42;16.60;99.90
36790;DHT22;22740;52.182;8.780;2023-07-13T03:50:44;16.50;99.90
36790;DHT22;22740;52.182;8.780;2023-07-13T03:56:46;16.30;99.90
36790;DHT22;22740;52.182;8.780;2023-07-13T04:02:48;16.20;99.90
36790;DHT22;22740;52.182;8.780;2023-07-13T04:08:53;16.40;99.90
36790;DHT22;22740;52.182;8.780;2023-07-13T04:14:56;16.80;99.90
36790;DHT22;22740;52.182;8.780;2023-07-13T04:20:57;17.90;99.90
36790;DHT22;22740;52.182;8.780;2023-07-13T04:26:59;18.70;99.90
36790;DHT22;22740;52.182;8.780;2023-07-13T04:33:03;18.80;99.90
36790;DHT22;22740;52.182;8.780;2023-07-13T04:39:06;18.90;99.90
36790;DHT22;22740;52.182;8.780;2023-07-13T04:45:09;19.20;99.90
36790;DHT22;22740;52.182;8.780;2023-07-13T04:51:11;19.30;99.90
36790;DHT22;22740;52.182;8.780;2023-07-13T04:57:13;18.50;99.90
36790;DHT22;22740;52.182;8.780;2023-07-13T05:03:15;17.80;99.90
36790;DHT22;22740;52.182;8.780;2023-07-13T05:09:17;17.20;99.90
36790;DHT22;22740;52.182;8.780;2023-07-13T05:15:22;17.40;99.90
36790;DHT22;22740;52.182;8.780;2023-07-13T05:21:24;17.40;99.90
36790;DHT22;22740;52.182;8.780;2023-07-13T05:27:26;17.20;99.90
36790;DHT22;22740;52.182;8.780;2023-07-13T05:33:28;17.10;99.90
36790;DHT22;22740;52.182;8.780;2023-07-13T05:39:30;17.10;99.90
36790;DHT22;22740;52.182;8.780;2023-07-13T05:45:32;17.00;99.90
36790;DHT22;22740;52.182;8.780;2023-07-13T05:51:34;16.90;99.90
36790;DHT22;22740;52.182;8.780;2023-07-13T05:57:36;16.90;99.90
36790;DHT22;22740;52.182;8.780;2023-07-13T06:03:38;17.00;99.90
36790;DHT22;22740;52.182;8.780;2023-07-13T06:09:40;17.00;99.90
36790;DHT22;22740;52.182;8.780;2023-07-13T06:15:42;16.90;99.90
36790;DHT22;22740;52.182;8.780;2023-07-13T06:21:44;17.10;99.90
36790;DHT22;22740;52.182;8.780;2023-07-13T06:27:45;17.10;99.90
36790;DHT22;22740;52.182;8.780;2023-07-13T06:33:47;17.40;99.90
36790;DHT22;22740;52.182;8.780;2023-07-13T06:39:49;17.70;99.90
36790;DHT22;22740;52.182;8.780;2023-07-13T06:45:54;17.70;99.90
36790;DHT22;22740;52.182;8.780;2023-07-13T06:51:56;17.70;99.90
36790;DHT22;22740;52.182;8.780;2023-07-13T06:57:58;17.90;99.90
36790;DHT22;22740;52.182;8.780;2023-07-13T07:04:00;18.20;99.90
36790;DHT22;22740;52.182;8.780;2023-07-13T07:10:02;18.10;99.90
36790;DHT22;22740;52.182;8.780;2023-07-13T07:16:04;17.80;99.90
36790;DHT22;22740;52.182;8.780;2023-07-13T07:22:06;18.00;99.90
36790;DHT22;22740;52.182;8.780;2023-07-13T07:28:08;18.20;99.90
36790;DHT22;22740;52.182;8.780;2023-07-13T07:34:13;18.30;99.90
36790;DHT22;22740;52.182;8.780;2023-07-13T07:40:15;18.50;99.90
36790;DHT22;22740;52.182;8.780;2023-07-13T07:46:20;18.60;99.90
36790;DHT22;22740;52.182;8.780;2023-07-13T07:52:22;18.80;99.90
36790;DHT22;22740;52.182;8.780;2023-07-13T07:58:23;18.30;99.90
36790;DHT22;22740;52.182;8.780;2023-07-13T08:04:28;18.00;99.90
36790;DHT22;22740;52.182;8.780;2023-07-13T08:10:35;18.00;99.90
36790;DHT22;22740;52.182;8.780;2023-07-13T08:16:37;18.20;99.90
36790;DHT22;22740;52.182;8.780;2023-07-13T08:22:39;18.60;99.90
36790;DHT22;22740;52.182;8.780;2023-07-13T08:28:41;18.60;99.90
36790;DHT22;22740;52.182;8.780;2023-07-13T08:34:44;18.40;99.90
36790;DHT22;22740;52.182;8.780;2023-07-13T08:40:51;18.50;99.90
36790;DHT22;22740;52.182;8.780;2023-07-13T08:46:55;18.60;99.90
36790;DHT22;22740;52.182;8.780;2023-07-13T08:52:58;19.00;99.90
36790;DHT22;22740;52.182;8.780;2023-07-13T08:59:13;19.30;99.90
36790;DHT22;22740;52.182;8.780;2023-07-13T09:05:17;19.50;99.90
36790;DHT22;22740;52.182;8.780;2023-07-13T09:17:47;19.50;99.90
36790;DHT22;22740;52.182;8.780;2023-07-13T09:23:54;19.60;99.90
36790;DHT22;22740;52.182;8.780;2023-07-13T09:30:10;19.90;99.90
36790;DHT22;22740;52.182;8.780;2023-07-13T09:36:23;20.20;99.90
36790;DHT22;22740;52.182;8.780;2023-07-13T09:42:26;20.40;99.90
36790;DHT22;22740;52.182;8.780;2023-07-13T09:48:35;20.00;99.90
36790;DHT22;22740;52.182;8.780;2023-07-13T09:54:39;20.50;99.90
36790;DHT22;22740;52.182;8.780;2023-07-13T10:00:43;20.30;99.90
36790;DHT22;22740;52.182;8.780;2023-07-13T10:07:05;20.60;99.90
36790;DHT22;22740;52.182;8.780;2023-07-13T10:13:34;21.20;99.90
36790;DHT22;22740;52.182;8.780;2023-07-13T10:19:38;21.90;99.90
36790;DHT22;22740;52.182;8.780;2023-07-13T10:25:43;22.00;99.90
36790;DHT22;22740;52.182;8.780;2023-07-13T10:31:47;22.30;99.90
36790;DHT22;22740;52.182;8.780;2023-07-13T10:37:58;22.50;99.90
36790;DHT22;22740;52.182;8.780;2023-07-13T10:44:04;22.80;99.90
36790;DHT22;22740;52.182;8.780;2023-07-13T10:50:20;22.20;99.90
36790;DHT22;22740;52.182;8.780;2023-07-13T10:56:28;21.50;99.90
36790;DHT22;22740;52.182;8.780;2023-07-13T11:02:34;21.60;99.90
36790;DHT22;22740;52.182;8.780;2023-07-13T11:09:17;21.30;99.90
36790;DHT22;22740;52.182;8.780;2023-07-13T11:15:01;21.10;99.90
36790;DHT22;22740;52.182;8.780;2023-07-13T11:21:22;21.90;99.90
36790;DHT22;22740;52.182;8.780;2023-07-13T11:39:43;23.30;99.90
36790;DHT22;22740;52.182;8.780;2023-07-13T11:45:49;22.30;99.90
36790;DHT22;22740;52.182;8.780;2023-07-13T11:51:52;21.70;99.90
36790;DHT22;22740;52.182;8.780;2023-07-13T11:57:59;21.40;99.90
36790;DHT22;22740;52.182;8.780;2023-07-13T12:04:03;22.50;99.90
36790;DHT22;22740;52.182;8.780;2023-07-13T12:16:25;22.60;99.90
36790;DHT22;22740;52.182;8.780;2023-07-13T12:22:28;22.10;99.90
36790;DHT22;22740;52.182;8.780;2023-07-13T12:34:32;22.60;99.90
36790;DHT22;22740;52.182;8.780;2023-07-13T12:40:34;22.90;99.90
36790;DHT22;22740;52.182;8.780;2023-07-13T12:46:38;23.00;99.90
36790;DHT22;22740;52.182;8.780;2023-07-13T12:52:43;22.70;99.90
36790;DHT22;22740;52.182;8.780;2023-07-13T12:58:45;22.10;99.90
36790;DHT22;22740;52.182;8.780;2023-07-13T13:04:50;21.90;99.90
36790;DHT22;22740;52.182;8.780;2023-07-13T13:10:52;21.60;99.90
36790;DHT22;22740;52.182;8.780;2023-07-13T13:16:54;21.80;99.90
36790;DHT22;22740;52.182;8.780;2023-07-13T13:22:56;22.00;99.90
36790;DHT22;22740;52.182;8.780;2023-07-13T13:28:59;22.20;99.90
36790;DHT22;22740;52.182;8.780;2023-07-13T13:35:04;22.40;99.90
36790;DHT22;22740;52.182;8.780;2023-07-13T13:41:07;22.30;99.90
36790;DHT22;22740;52.182;8.780;2023-07-13T13:47:29;20.20;99.90
36790;DHT22;22740;52.182;8.780;2023-07-13T13:53:32;18.60;99.90
36790;DHT22;22740;52.182;8.780;2023-07-13T13:59:34;17.80;99.90
36790;DHT22;22740;52.182;8.780;2023-07-13T14:05:41;17.50;99.90
36790;DHT22;22740;52.182;8.780;2023-07-13T14:11:43;16.90;99.90
36790;DHT22;22740;52.182;8.780;2023-07-13T14:17:48;16.80;99.90
36790;DHT22;22740;52.182;8.780;2023-07-13T14:23:52;16.50;99.90
36790;DHT22;22740;52.182;8.780;2023-07-13T14:29:54;16.80;99.90
36790;DHT22;22740;52.182;8.780;2023-07-13T14:35:56;17.10;99.90
36790;DHT22;22740;52.182;8.780;2023-07-13T14:41:58;17.60;99.90
36790;DHT22;22740;52.182;8.780;2023-07-13T14:48:02;17.90;99.90
36790;DHT22;22740;52.182;8.780;2023-07-13T14:54:08;18.00;99.90
36790;DHT22;22740;52.182;8.780;2023-07-13T15:06:19;17.60;99.90
36790;DHT22;22740;52.182;8.780;2023-07-13T15:12:21;17.10;99.90
36790;DHT22;22740;52.182;8.780;2023-07-13T15:18:24;16.60;99.90
36790;DHT22;22740;52.182;8.780;2023-07-13T15:24:29;16.60;99.90
36790;DHT22;22740;52.182;8.780;2023-07-13T15:30:36;16.40;99.90
36790;DHT22;22740;52.182;8.780;2023-07-13T15:36:40;16.80;99.90
36790;DHT22;22740;52.182;8.780;2023-07-13T15:42:43;16.80;99.90
36790;DHT22;22740;52.182;8.780;2023-07-13T15:48:47;16.90;99.90
36790;DHT22;22740;52.182;8.780;2023-07-13T15:54:49;16.70;99.90
36790;DHT22;22740;52.182;8.780;2023-07-13T16:00:52;16.60;99.90
36790;DHT22;22740;52.182;8.780;2023-07-13T16:06:55;16.70;99.90
36790;DHT22;22740;52.182;8.780;2023-07-13T16:12:58;16.80;99.90
36790;DHT22;22740;52.182;8.780;2023-07-13T16:19:04;17.00;99.90
36790;DHT22;22740;52.182;8.780;2023-07-13T16:25:25;17.00;99.90
36790;DHT22;22740;52.182;8.780;2023-07-13T16:31:30;17.30;99.90
36790;DHT22;22740;52.182;8.780;2023-07-13T16:37:36;17.40;99.90
36790;DHT22;22740;52.182;8.780;2023-07-13T16:43:58;17.60;99.90
36790;DHT22;22740;52.182;8.780;2023-07-13T16:50:00;18.00;99.90
36790;DHT22;22740;52.182;8.780;2023-07-13T16:56:05;18.60;99.90
36790;DHT22;22740;52.182;8.780;2023-07-13T17:02:35;18.60;99.90
36790;DHT22;22740;52.182;8.780;2023-07-13T17:08:37;18.60;99.90
36790;DHT22;22740;52.182;8.780;2023-07-13T17:14:40;18.70;99.90
36790;DHT22;22740;52.182;8.780;2023-07-13T17:20:44;18.40;99.90
36790;DHT22;22740;52.182;8.780;2023-07-13T17:26:47;19.10;99.90
36790;DHT22;22740;52.182;8.780;2023-07-13T17:32:50;19.80;99.90
36790;DHT22;22740;52.182;8.780;2023-07-13T17:38:57;19.90;99.90
36790;DHT22;22740;52.182;8.780;2023-07-13T17:44:59;20.20;99.90
36790;DHT22;22740;52.182;8.780;2023-07-13T17:51:01;19.80;99.90
36790;DHT22;22740;52.182;8.780;2023-07-13T17:57:03;19.50;99.90
36790;DHT22;22740;52.182;8.780;2023-07-13T18:03:14;19.20;99.90
36790;DHT22;22740;52.182;8.780;2023-07-13T18:09:19;18.80;99.90
36790;DHT22;22740;52.182;8.780;2023-07-13T18:15:24;18.40;99.90
36790;DHT22;22740;52.182;8.780;2023-07-13T18:21:30;18.30;99.90
36790;DHT22;22740;52.182;8.780;2023-07-13T18:27:33;18.20;99.90
36790;DHT22;22740;52.182;8.780;2023-07-13T18:33:35;18.10;99.90
36790;DHT22;22740;52.182;8.780;2023-07-13T18:39:37;18.10;99.90
36790;DHT22;22740;52.182;8.780;2023-07-13T18:45:39;18.00;99.90
36790;DHT22;22740;52.182;8.780;2023-07-13T18:51:42;17.90;99.90
36790;DHT22;22740;52.182;8.780;2023-07-13T18:57:44;17.90;99.90
36790;DHT22;22740;52.182;8.780;2023-07-13T19:03:47;18.10;99.90
36790;DHT22;22740;52.182;8.780;2023-07-13T19:09:53;17.90;99.90
36790;DHT22;22740;52.182;8.780;2023-07-13T19:15:56;17.80;99.90
36790;DHT22;22740;52.182;8.780;2023-07-13T19:21:58;17.80;99.90
36790;DHT22;22740;52.182;8.780;2023-07-13T19:28:23;17.70;99.90
36790;DHT22;22740;52.182;8.780;2023-07-13T19:34:26;17.60;99.90
36790;DHT22;22740;52.182;8.780;2023-07-13T19:40:29;17.50;99.90
36790;DHT22;22740;52.182;8.780;2023-07-13T19:46:33;17.30;99.90
36790;DHT22;22740;52.182;8.780;2023-07-13T19:52:42;17.10;99.90
36790;DHT22;22740;52.182;8.780;2023-07-13T19:58:45;17.00;99.90
36790;DHT22;22740;52.182;8.780;2023-07-13T20:04:49;16.90;99.90
36790;DHT22;22740;52.182;8.780;2023-07-13T20:10:52;16.90;99.90
36790;DHT22;22740;52.182;8.780;2023-07-13T20:16:59;16.90;99.90
36790;DHT22;22740;52.182;8.780;2023-07-13T20:23:29;17.00;99.90
36790;DHT22;22740;52.182;8.780;2023-07-13T20:29:31;17.00;99.90
36790;DHT22;22740;52.182;8.780;2023-07-13T20:35:34;17.00;99.90
36790;DHT22;22740;52.182;8.780;2023-07-13T20:41:37;17.00;99.90
36790;DHT22;22740;52.182;8.780;2023-07-13T20:47:41;16.90;99.90
36790;DHT22;22740;52.182;8.780;2023-07-13T20:53:44;16.80;99.90
36790;DHT22;22740;52.182;8.780;2023-07-13T20:59:53;16.90;99.90
36790;DHT22;22740;52.182;8.780;2023-07-13T21:06:06;16.90;99.90
36790;DHT22;22740;52.182;8.780;2023-07-13T21:12:08;16.80;99.90
36790;DHT22;22740;52.182;8.780;2023-07-13T21:18:19;16.90;99.90
36790;DHT22;22740;52.182;8.780;2023-07-13T21:24:21;16.90;99.90
36790;DHT22;22740;52.182;8.780;2023-07-13T21:30:32;16.80;99.90
36790;DHT22;22740;52.182;8.780;2023-07-13T21:36:35;16.90;99.90
36790;DHT22;22740;52.182;8.780;2023-07-13T21:42:37;16.80;99.90
36790;DHT22;22740;52.182;8.780;2023-07-13T21:48:40;16.70;99.90
36790;DHT22;22740;52.182;8.780;2023-07-13T21:54:42;16.50;99.90
36790;DHT22;22740;52.182;8.780;2023-07-13T22:00:45;16.40;99.90
36790;DHT22;22740;52.182;8.780;2023-07-13T22:06:47;16.50;99.90
36790;DHT22;22740;52.182;8.780;2023-07-13T22:12:49;16.40;99.90
36790;DHT22;22740;52.182;8.780;2023-07-13T22:18:53;16.50;99.90
36790;DHT22;22740;52.182;8.780;2023-07-13T22:24:56;16.50;99.90
36790;DHT22;22740;52.182;8.780;2023-07-13T22:30:58;16.40;99.90
36790;DHT22;22740;52.182;8.780;2023-07-13T22:37:00;16.20;99.90
36790;DHT22;22740;52.182;8.780;2023-07-13T22:49:27;16.00;99.90
36790;DHT22;22740;52.182;8.780;2023-07-13T22:55:30;16.10;99.90
36790;DHT22;22740;52.182;8.780;2023-07-13T23:01:33;16.10;99.90
36790;DHT22;22740;52.182;8.780;2023-07-13T23:07:37;15.90;99.90
36790;DHT22;22740;52.182;8.780;2023-07-13T23:13:40;15.90;99.90
36790;DHT22;22740;52.182;8.780;2023-07-13T23:19:42;15.90;99.90
36790;DHT22;22740;52.182;8.780;2023-07-13T23:25:44;15.80;99.90
36790;DHT22;22740;52.182;8.780;2023-07-13T23:31:47;15.60;99.90
36790;DHT22;22740;52.182;8.780;2023-07-13T23:37:49;15.50;99.90
36790;DHT22;22740;52.182;8.780;2023-07-13T23:43:51;15.40;99.90
36790;DHT22;22740;52.182;8.780;2023-07-13T23:49:53;15.40;99.90
36790;DHT22;22740;52.182;8.780;2023-07-13T23:55:57;15.40;99.90
